RJTS(METAR)
12/11 17:00
METAR RJTS 110800Z 31004KT 9999 FEW050 BKN120 BKN200 02/M05 Q1026
RMK 2SC050 5AC120 6CI200 A3031=
戻る
トップページへ戻る
IMOC Co,.Ltd.